sensor_id;sensor_type;location;lat;lon;timestamp;P1;durP1;ratioP1;P2;durP2;ratioP2
20861;SDS011;10591;52.532;13.348;2022-10-29T00:00:49;10.08;;;4.95;;
20861;SDS011;10591;52.532;13.348;2022-10-29T00:03:25;15.58;;;5.17;;
20861;SDS011;10591;52.532;13.348;2022-10-29T00:05:56;10.30;;;5.00;;
20861;SDS011;10591;52.532;13.348;2022-10-29T00:08:29;9.85;;;4.83;;
20861;SDS011;10591;52.532;13.348;2022-10-29T00:11:07;9.40;;;4.62;;
20861;SDS011;10591;52.532;13.348;2022-10-29T00:13:52;15.85;;;5.05;;
20861;SDS011;10591;52.532;13.348;2022-10-29T00:16:23;10.08;;;5.15;;
20861;SDS011;10591;52.532;13.348;2022-10-29T00:18:55;10.43;;;5.05;;
20861;SDS011;10591;52.532;13.348;2022-10-29T00:21:26;7.60;;;4.87;;
20861;SDS011;10591;52.532;13.348;2022-10-29T00:23:57;10.75;;;5.30;;
20861;SDS011;10591;52.532;13.348;2022-10-29T00:26:28;10.40;;;4.95;;
20861;SDS011;10591;52.532;13.348;2022-10-29T00:28:58;11.03;;;4.80;;
20861;SDS011;10591;52.532;13.348;2022-10-29T00:31:29;8.58;;;4.78;;
20861;SDS011;10591;52.532;13.348;2022-10-29T00:33:59;11.93;;;4.85;;
20861;SDS011;10591;52.532;13.348;2022-10-29T00:36:30;11.60;;;5.25;;
20861;SDS011;10591;52.532;13.348;2022-10-29T00:39:00;11.03;;;4.75;;
20861;SDS011;10591;52.532;13.348;2022-10-29T00:41:30;10.23;;;5.20;;
20861;SDS011;10591;52.532;13.348;2022-10-29T00:46:50;14.28;;;5.28;;
20861;SDS011;10591;52.532;13.348;2022-10-29T00:49:23;12.07;;;5.55;;
20861;SDS011;10591;52.532;13.348;2022-10-29T00:51:55;10.63;;;5.42;;
20861;SDS011;10591;52.532;13.348;2022-10-29T00:54:26;10.95;;;4.80;;
20861;SDS011;10591;52.532;13.348;2022-10-29T00:57:06;11.25;;;5.00;;
20861;SDS011;10591;52.532;13.348;2022-10-29T00:59:35;11.73;;;5.17;;
20861;SDS011;10591;52.532;13.348;2022-10-29T01:02:05;10.20;;;5.17;;
20861;SDS011;10591;52.532;13.348;2022-10-29T01:04:36;12.33;;;5.87;;
20861;SDS011;10591;52.532;13.348;2022-10-29T01:07:08;12.07;;;5.40;;
20861;SDS011;10591;52.532;13.348;2022-10-29T01:09:39;10.40;;;5.50;;
20861;SDS011;10591;52.532;13.348;2022-10-29T01:12:14;13.35;;;5.20;;
20861;SDS011;10591;52.532;13.348;2022-10-29T01:15:19;12.33;;;5.40;;
20861;SDS011;10591;52.532;13.348;2022-10-29T01:18:10;15.55;;;5.65;;
20861;SDS011;10591;52.532;13.348;2022-10-29T01:28:57;14.83;;;6.12;;
20861;SDS011;10591;52.532;13.348;2022-10-29T01:31:35;7.85;;;5.70;;
20861;SDS011;10591;52.532;13.348;2022-10-29T01:37:19;11.85;;;5.60;;
20861;SDS011;10591;52.532;13.348;2022-10-29T01:42:57;12.68;;;6.12;;
20861;SDS011;10591;52.532;13.348;2022-10-29T01:45:35;11.88;;;6.25;;
20861;SDS011;10591;52.532;13.348;2022-10-29T01:48:08;12.43;;;5.95;;
20861;SDS011;10591;52.532;13.348;2022-10-29T01:50:47;9.35;;;5.67;;
20861;SDS011;10591;52.532;13.348;2022-10-29T01:53:19;14.98;;;5.92;;
20861;SDS011;10591;52.532;13.348;2022-10-29T01:55:50;9.65;;;5.78;;
20861;SDS011;10591;52.532;13.348;2022-10-29T01:58:20;11.68;;;5.65;;
20861;SDS011;10591;52.532;13.348;2022-10-29T02:01:04;12.07;;;6.30;;
20861;SDS011;10591;52.532;13.348;2022-10-29T02:03:36;13.20;;;6.28;;
20861;SDS011;10591;52.532;13.348;2022-10-29T02:06:26;13.03;;;5.87;;
20861;SDS011;10591;52.532;13.348;2022-10-29T02:09:48;11.88;;;6.62;;
20861;SDS011;10591;52.532;13.348;2022-10-29T02:11:43;8.98;;;5.75;;
20861;SDS011;10591;52.532;13.348;2022-10-29T02:17:03;10.82;;;6.20;;
20861;SDS011;10591;52.532;13.348;2022-10-29T02:19:35;10.80;;;6.08;;
20861;SDS011;10591;52.532;13.348;2022-10-29T02:22:06;16.82;;;7.03;;
20861;SDS011;10591;52.532;13.348;2022-10-29T02:24:36;14.00;;;6.87;;
20861;SDS011;10591;52.532;13.348;2022-10-29T02:27:07;10.48;;;6.62;;
20861;SDS011;10591;52.532;13.348;2022-10-29T02:29:37;16.73;;;6.62;;
20861;SDS011;10591;52.532;13.348;2022-10-29T02:32:08;12.50;;;6.62;;
20861;SDS011;10591;52.532;13.348;2022-10-29T02:34:38;11.53;;;6.55;;
20861;SDS011;10591;52.532;13.348;2022-10-29T02:37:09;14.45;;;6.67;;
20861;SDS011;10591;52.532;13.348;2022-10-29T02:39:39;12.53;;;6.42;;
20861;SDS011;10591;52.532;13.348;2022-10-29T02:42:09;14.03;;;6.90;;
20861;SDS011;10591;52.532;13.348;2022-10-29T02:44:40;13.75;;;6.62;;
20861;SDS011;10591;52.532;13.348;2022-10-29T02:47:10;9.95;;;5.97;;
20861;SDS011;10591;52.532;13.348;2022-10-29T02:49:41;13.95;;;6.60;;
20861;SDS011;10591;52.532;13.348;2022-10-29T02:52:11;32.58;;;22.40;;
20861;SDS011;10591;52.532;13.348;2022-10-29T02:54:42;12.10;;;6.80;;
20861;SDS011;10591;52.532;13.348;2022-10-29T02:57:12;14.40;;;6.70;;
20861;SDS011;10591;52.532;13.348;2022-10-29T02:59:42;13.98;;;6.85;;
20861;SDS011;10591;52.532;13.348;2022-10-29T03:02:13;11.30;;;5.65;;
20861;SDS011;10591;52.532;13.348;2022-10-29T03:04:43;14.23;;;6.83;;
20861;SDS011;10591;52.532;13.348;2022-10-29T03:07:14;12.33;;;6.80;;
20861;SDS011;10591;52.532;13.348;2022-10-29T03:09:44;17.17;;;6.67;;
20861;SDS011;10591;52.532;13.348;2022-10-29T03:12:15;11.83;;;6.78;;
20861;SDS011;10591;52.532;13.348;2022-10-29T03:14:45;15.45;;;6.33;;
20861;SDS011;10591;52.532;13.348;2022-10-29T03:17:15;12.93;;;6.87;;
20861;SDS011;10591;52.532;13.348;2022-10-29T03:19:46;14.63;;;6.55;;
20861;SDS011;10591;52.532;13.348;2022-10-29T03:22:16;12.05;;;6.28;;
20861;SDS011;10591;52.532;13.348;2022-10-29T03:24:47;13.25;;;6.97;;
20861;SDS011;10591;52.532;13.348;2022-10-29T03:27:17;11.83;;;6.85;;
20861;SDS011;10591;52.532;13.348;2022-10-29T03:29:47;10.55;;;6.37;;
20861;SDS011;10591;52.532;13.348;2022-10-29T03:32:18;12.40;;;6.87;;
20861;SDS011;10591;52.532;13.348;2022-10-29T03:34:48;12.90;;;7.30;;
20861;SDS011;10591;52.532;13.348;2022-10-29T03:37:20;9.80;;;6.97;;
20861;SDS011;10591;52.532;13.348;2022-10-29T03:39:50;11.03;;;7.00;;
20861;SDS011;10591;52.532;13.348;2022-10-29T03:42:21;12.18;;;7.05;;
20861;SDS011;10591;52.532;13.348;2022-10-29T03:44:51;17.12;;;8.00;;
20861;SDS011;10591;52.532;13.348;2022-10-29T03:47:22;11.35;;;7.35;;
20861;SDS011;10591;52.532;13.348;2022-10-29T03:49:52;10.18;;;6.53;;
20861;SDS011;10591;52.532;13.348;2022-10-29T03:52:23;12.68;;;7.33;;
20861;SDS011;10591;52.532;13.348;2022-10-29T03:54:54;13.70;;;7.92;;
20861;SDS011;10591;52.532;13.348;2022-10-29T03:57:24;13.68;;;7.55;;
20861;SDS011;10591;52.532;13.348;2022-10-29T03:59:54;12.82;;;7.67;;
20861;SDS011;10591;52.532;13.348;2022-10-29T04:02:25;16.27;;;8.28;;
20861;SDS011;10591;52.532;13.348;2022-10-29T04:04:56;15.88;;;7.67;;
20861;SDS011;10591;52.532;13.348;2022-10-29T04:07:26;15.00;;;7.85;;
20861;SDS011;10591;52.532;13.348;2022-10-29T04:09:57;13.28;;;8.00;;
20861;SDS011;10591;52.532;13.348;2022-10-29T04:12:27;13.28;;;7.40;;
20861;SDS011;10591;52.532;13.348;2022-10-29T04:14:58;15.10;;;8.10;;
20861;SDS011;10591;52.532;13.348;2022-10-29T04:17:28;15.38;;;7.35;;
20861;SDS011;10591;52.532;13.348;2022-10-29T04:19:59;17.70;;;8.00;;
20861;SDS011;10591;52.532;13.348;2022-10-29T04:22:29;14.53;;;7.70;;
20861;SDS011;10591;52.532;13.348;2022-10-29T04:25:01;13.75;;;7.95;;
20861;SDS011;10591;52.532;13.348;2022-10-29T04:27:33;16.20;;;7.42;;
20861;SDS011;10591;52.532;13.348;2022-10-29T04:30:06;11.28;;;7.12;;
20861;SDS011;10591;52.532;13.348;2022-10-29T04:32:37;12.33;;;7.30;;
20861;SDS011;10591;52.532;13.348;2022-10-29T04:35:07;9.53;;;6.90;;
20861;SDS011;10591;52.532;13.348;2022-10-29T04:37:38;18.30;;;7.90;;
20861;SDS011;10591;52.532;13.348;2022-10-29T04:40:10;17.07;;;9.75;;
20861;SDS011;10591;52.532;13.348;2022-10-29T04:42:41;15.48;;;8.75;;
20861;SDS011;10591;52.532;13.348;2022-10-29T04:45:11;15.95;;;8.38;;
20861;SDS011;10591;52.532;13.348;2022-10-29T04:47:41;15.60;;;7.60;;
20861;SDS011;10591;52.532;13.348;2022-10-29T04:50:12;13.55;;;8.05;;
20861;SDS011;10591;52.532;13.348;2022-10-29T04:52:42;11.83;;;7.37;;
20861;SDS011;10591;52.532;13.348;2022-10-29T04:55:13;14.38;;;7.33;;
20861;SDS011;10591;52.532;13.348;2022-10-29T04:57:48;20.08;;;8.45;;
20861;SDS011;10591;52.532;13.348;2022-10-29T05:00:18;15.35;;;8.83;;
20861;SDS011;10591;52.532;13.348;2022-10-29T05:02:49;15.40;;;7.30;;
20861;SDS011;10591;52.532;13.348;2022-10-29T05:05:21;15.43;;;7.70;;
20861;SDS011;10591;52.532;13.348;2022-10-29T05:07:55;12.85;;;7.42;;
20861;SDS011;10591;52.532;13.348;2022-10-29T05:10:28;12.45;;;7.12;;
20861;SDS011;10591;52.532;13.348;2022-10-29T05:13:01;16.77;;;8.05;;
20861;SDS011;10591;52.532;13.348;2022-10-29T05:15:34;14.95;;;7.78;;
20861;SDS011;10591;52.532;13.348;2022-10-29T05:18:06;12.45;;;7.25;;
20861;SDS011;10591;52.532;13.348;2022-10-29T05:20:36;10.95;;;7.33;;
20861;SDS011;10591;52.532;13.348;2022-10-29T05:23:07;16.62;;;8.33;;
20861;SDS011;10591;52.532;13.348;2022-10-29T05:25:40;12.37;;;7.80;;
20861;SDS011;10591;52.532;13.348;2022-10-29T05:28:11;17.10;;;7.78;;
20861;SDS011;10591;52.532;13.348;2022-10-29T05:30:45;13.50;;;7.60;;
20861;SDS011;10591;52.532;13.348;2022-10-29T05:33:18;13.50;;;8.15;;
20861;SDS011;10591;52.532;13.348;2022-10-29T05:35:50;20.88;;;10.05;;
20861;SDS011;10591;52.532;13.348;2022-10-29T05:38:21;14.28;;;8.10;;
20861;SDS011;10591;52.532;13.348;2022-10-29T05:40:51;13.05;;;7.75;;
20861;SDS011;10591;52.532;13.348;2022-10-29T05:43:21;13.38;;;7.60;;
20861;SDS011;10591;52.532;13.348;2022-10-29T05:45:52;16.93;;;8.30;;
20861;SDS011;10591;52.532;13.348;2022-10-29T05:48:22;13.55;;;7.50;;
20861;SDS011;10591;52.532;13.348;2022-10-29T05:50:53;16.32;;;7.65;;
20861;SDS011;10591;52.532;13.348;2022-10-29T05:53:25;15.35;;;7.72;;
20861;SDS011;10591;52.532;13.348;2022-10-29T05:55:57;16.00;;;8.25;;
20861;SDS011;10591;52.532;13.348;2022-10-29T05:58:27;16.97;;;8.35;;
20861;SDS011;10591;52.532;13.348;2022-10-29T06:00:58;14.53;;;7.60;;
20861;SDS011;10591;52.532;13.348;2022-10-29T06:03:28;16.52;;;8.48;;
20861;SDS011;10591;52.532;13.348;2022-10-29T06:05:58;16.77;;;8.10;;
20861;SDS011;10591;52.532;13.348;2022-10-29T06:08:29;13.93;;;8.25;;
20861;SDS011;10591;52.532;13.348;2022-10-29T06:11:00;13.72;;;7.47;;
20861;SDS011;10591;52.532;13.348;2022-10-29T06:13:31;13.78;;;8.03;;
20861;SDS011;10591;52.532;13.348;2022-10-29T06:16:01;14.03;;;8.25;;
20861;SDS011;10591;52.532;13.348;2022-10-29T06:18:32;16.23;;;8.13;;
20861;SDS011;10591;52.532;13.348;2022-10-29T06:21:02;17.73;;;8.40;;
20861;SDS011;10591;52.532;13.348;2022-10-29T06:23:33;16.93;;;8.28;;
20861;SDS011;10591;52.532;13.348;2022-10-29T06:26:03;11.83;;;7.72;;
20861;SDS011;10591;52.532;13.348;2022-10-29T06:28:34;13.88;;;7.72;;
20861;SDS011;10591;52.532;13.348;2022-10-29T06:31:04;14.78;;;7.87;;
20861;SDS011;10591;52.532;13.348;2022-10-29T06:33:35;15.68;;;7.90;;
20861;SDS011;10591;52.532;13.348;2022-10-29T06:36:05;13.93;;;8.20;;
20861;SDS011;10591;52.532;13.348;2022-10-29T06:38:36;16.35;;;8.28;;
20861;SDS011;10591;52.532;13.348;2022-10-29T06:41:06;13.93;;;8.63;;
20861;SDS011;10591;52.532;13.348;2022-10-29T06:43:37;12.98;;;7.62;;
20861;SDS011;10591;52.532;13.348;2022-10-29T06:46:08;14.47;;;8.05;;
20861;SDS011;10591;52.532;13.348;2022-10-29T06:48:38;14.10;;;8.68;;
20861;SDS011;10591;52.532;13.348;2022-10-29T06:51:08;20.70;;;8.90;;
20861;SDS011;10591;52.532;13.348;2022-10-29T06:53:39;17.35;;;9.10;;
20861;SDS011;10591;52.532;13.348;2022-10-29T06:56:09;21.75;;;16.73;;
20861;SDS011;10591;52.532;13.348;2022-10-29T06:58:40;14.50;;;8.58;;
20861;SDS011;10591;52.532;13.348;2022-10-29T07:01:10;13.18;;;8.18;;
20861;SDS011;10591;52.532;13.348;2022-10-29T07:03:40;16.07;;;8.15;;
20861;SDS011;10591;52.532;13.348;2022-10-29T07:06:11;15.90;;;8.08;;
20861;SDS011;10591;52.532;13.348;2022-10-29T07:08:41;16.30;;;8.25;;
20861;SDS011;10591;52.532;13.348;2022-10-29T07:11:12;18.67;;;8.75;;
20861;SDS011;10591;52.532;13.348;2022-10-29T07:13:42;11.95;;;8.03;;
20861;SDS011;10591;52.532;13.348;2022-10-29T07:16:13;15.65;;;8.58;;
20861;SDS011;10591;52.532;13.348;2022-10-29T07:18:43;12.28;;;7.90;;
20861;SDS011;10591;52.532;13.348;2022-10-29T07:21:13;12.23;;;7.58;;
20861;SDS011;10591;52.532;13.348;2022-10-29T07:23:44;14.25;;;8.33;;
20861;SDS011;10591;52.532;13.348;2022-10-29T07:26:14;14.50;;;7.75;;
20861;SDS011;10591;52.532;13.348;2022-10-29T07:28:45;13.05;;;8.93;;
20861;SDS011;10591;52.532;13.348;2022-10-29T07:31:15;15.72;;;7.85;;
20861;SDS011;10591;52.532;13.348;2022-10-29T07:33:46;16.23;;;9.05;;
20861;SDS011;10591;52.532;13.348;2022-10-29T07:36:16;17.45;;;10.50;;
20861;SDS011;10591;52.532;13.348;2022-10-29T07:38:46;13.50;;;8.65;;
20861;SDS011;10591;52.532;13.348;2022-10-29T07:41:17;13.80;;;8.15;;
20861;SDS011;10591;52.532;13.348;2022-10-29T07:43:47;13.80;;;8.03;;
20861;SDS011;10591;52.532;13.348;2022-10-29T07:46:18;12.80;;;7.78;;
20861;SDS011;10591;52.532;13.348;2022-10-29T07:48:48;13.38;;;8.08;;
20861;SDS011;10591;52.532;13.348;2022-10-29T07:51:19;15.65;;;7.97;;
20861;SDS011;10591;52.532;13.348;2022-10-29T07:53:49;13.43;;;7.80;;
20861;SDS011;10591;52.532;13.348;2022-10-29T07:56:20;15.43;;;7.87;;
20861;SDS011;10591;52.532;13.348;2022-10-29T07:58:50;15.25;;;8.10;;
20861;SDS011;10591;52.532;13.348;2022-10-29T08:01:20;15.05;;;8.30;;
20861;SDS011;10591;52.532;13.348;2022-10-29T08:03:51;13.78;;;7.62;;
20861;SDS011;10591;52.532;13.348;2022-10-29T08:06:21;14.58;;;8.00;;
20861;SDS011;10591;52.532;13.348;2022-10-29T08:08:52;15.20;;;9.10;;
20861;SDS011;10591;52.532;13.348;2022-10-29T08:11:23;20.17;;;10.10;;
20861;SDS011;10591;52.532;13.348;2022-10-29T08:13:54;20.27;;;10.50;;
20861;SDS011;10591;52.532;13.348;2022-10-29T08:16:24;14.23;;;8.33;;
20861;SDS011;10591;52.532;13.348;2022-10-29T08:18:55;15.40;;;8.40;;
20861;SDS011;10591;52.532;13.348;2022-10-29T08:21:25;14.95;;;8.23;;
20861;SDS011;10591;52.532;13.348;2022-10-29T08:23:55;17.42;;;8.35;;
20861;SDS011;10591;52.532;13.348;2022-10-29T08:26:26;10.75;;;7.62;;
20861;SDS011;10591;52.532;13.348;2022-10-29T08:28:56;13.48;;;8.88;;
20861;SDS011;10591;52.532;13.348;2022-10-29T08:31:27;13.08;;;8.50;;
20861;SDS011;10591;52.532;13.348;2022-10-29T08:33:57;13.62;;;8.00;;
20861;SDS011;10591;52.532;13.348;2022-10-29T08:36:27;12.95;;;7.78;;
20861;SDS011;10591;52.532;13.348;2022-10-29T08:38:58;12.07;;;7.80;;
20861;SDS011;10591;52.532;13.348;2022-10-29T08:49:59;12.80;;;7.65;;
20861;SDS011;10591;52.532;13.348;2022-10-29T08:52:32;13.18;;;8.63;;
20861;SDS011;10591;52.532;13.348;2022-10-29T08:55:14;13.13;;;8.18;;
20861;SDS011;10591;52.532;13.348;2022-10-29T08:57:56;15.35;;;8.43;;
20861;SDS011;10591;52.532;13.348;2022-10-29T09:00:32;19.05;;;8.85;;
20861;SDS011;10591;52.532;13.348;2022-10-29T09:03:10;15.45;;;8.00;;
20861;SDS011;10591;52.532;13.348;2022-10-29T09:19:46;12.73;;;7.87;;
20861;SDS011;10591;52.532;13.348;2022-10-29T09:22:30;14.00;;;7.30;;
20861;SDS011;10591;52.532;13.348;2022-10-29T09:25:16;17.27;;;8.30;;
20861;SDS011;10591;52.532;13.348;2022-10-29T09:28:08;9.83;;;7.78;;
20861;SDS011;10591;52.532;13.348;2022-10-29T09:30:50;15.13;;;6.58;;
20861;SDS011;10591;52.532;13.348;2022-10-29T09:33:19;13.18;;;6.97;;
20861;SDS011;10591;52.532;13.348;2022-10-29T09:35:53;12.07;;;6.62;;
20861;SDS011;10591;52.532;13.348;2022-10-29T09:38:28;14.58;;;6.90;;
20861;SDS011;10591;52.532;13.348;2022-10-29T09:41:02;10.68;;;6.70;;
20861;SDS011;10591;52.532;13.348;2022-10-29T09:43:36;13.48;;;6.10;;
20861;SDS011;10591;52.532;13.348;2022-10-29T09:46:20;10.30;;;5.90;;
20861;SDS011;10591;52.532;13.348;2022-10-29T09:48:54;13.58;;;6.47;;
20861;SDS011;10591;52.532;13.348;2022-10-29T09:51:29;12.50;;;5.95;;
20861;SDS011;10591;52.532;13.348;2022-10-29T09:54:04;11.20;;;6.60;;
20861;SDS011;10591;52.532;13.348;2022-10-29T09:56:37;13.45;;;6.75;;
20861;SDS011;10591;52.532;13.348;2022-10-29T09:59:10;13.08;;;6.92;;
20861;SDS011;10591;52.532;13.348;2022-10-29T10:01:42;12.75;;;6.47;;
20861;SDS011;10591;52.532;13.348;2022-10-29T10:04:27;12.07;;;6.60;;
20861;SDS011;10591;52.532;13.348;2022-10-29T10:07:15;11.68;;;6.47;;
20861;SDS011;10591;52.532;13.348;2022-10-29T10:09:54;12.15;;;6.45;;
20861;SDS011;10591;52.532;13.348;2022-10-29T10:18:00;10.80;;;7.20;;
20861;SDS011;10591;52.532;13.348;2022-10-29T10:20:39;13.18;;;7.10;;
20861;SDS011;10591;52.532;13.348;2022-10-29T10:23:20;13.88;;;7.40;;
20861;SDS011;10591;52.532;13.348;2022-10-29T10:25:49;12.75;;;6.95;;
20861;SDS011;10591;52.532;13.348;2022-10-29T10:28:26;9.83;;;7.22;;
20861;SDS011;10591;52.532;13.348;2022-10-29T10:31:14;11.75;;;6.70;;
20861;SDS011;10591;52.532;13.348;2022-10-29T10:33:49;11.97;;;6.72;;
20861;SDS011;10591;52.532;13.348;2022-10-29T10:36:24;14.05;;;6.90;;
20861;SDS011;10591;52.532;13.348;2022-10-29T10:38:58;14.65;;;6.65;;
20861;SDS011;10591;52.532;13.348;2022-10-29T10:41:29;14.95;;;7.22;;
20861;SDS011;10591;52.532;13.348;2022-10-29T10:44:02;11.45;;;7.20;;
20861;SDS011;10591;52.532;13.348;2022-10-29T10:46:34;9.13;;;6.45;;
20861;SDS011;10591;52.532;13.348;2022-10-29T10:51:44;11.00;;;6.17;;
20861;SDS011;10591;52.532;13.348;2022-10-29T10:54:22;12.85;;;6.25;;
20861;SDS011;10591;52.532;13.348;2022-10-29T10:57:00;13.50;;;5.72;;
20861;SDS011;10591;52.532;13.348;2022-10-29T10:59:43;12.93;;;6.62;;
20861;SDS011;10591;52.532;13.348;2022-10-29T11:04:58;12.65;;;6.75;;
20861;SDS011;10591;52.532;13.348;2022-10-29T11:08:00;14.55;;;6.47;;
20861;SDS011;10591;52.532;13.348;2022-10-29T11:10:37;10.55;;;5.72;;
20861;SDS011;10591;52.532;13.348;2022-10-29T11:13:12;14.95;;;5.97;;
20861;SDS011;10591;52.532;13.348;2022-10-29T11:15:49;10.20;;;5.78;;
20861;SDS011;10591;52.532;13.348;2022-10-29T11:18:28;13.13;;;6.42;;
20861;SDS011;10591;52.532;13.348;2022-10-29T11:21:08;13.13;;;7.33;;
20861;SDS011;10591;52.532;13.348;2022-10-29T11:23:59;9.08;;;5.80;;
20861;SDS011;10591;52.532;13.348;2022-10-29T11:26:53;12.78;;;5.55;;
20861;SDS011;10591;52.532;13.348;2022-10-29T11:32:15;10.53;;;5.70;;
20861;SDS011;10591;52.532;13.348;2022-10-29T11:35:10;13.05;;;6.72;;
20861;SDS011;10591;52.532;13.348;2022-10-29T11:40:42;9.70;;;5.85;;
20861;SDS011;10591;52.532;13.348;2022-10-29T11:43:14;13.65;;;5.95;;
20861;SDS011;10591;52.532;13.348;2022-10-29T11:46:01;10.08;;;5.62;;
20861;SDS011;10591;52.532;13.348;2022-10-29T11:51:17;16.48;;;7.15;;
20861;SDS011;10591;52.532;13.348;2022-10-29T11:56:47;14.13;;;7.17;;
20861;SDS011;10591;52.532;13.348;2022-10-29T11:59:40;10.20;;;6.28;;
20861;SDS011;10591;52.532;13.348;2022-10-29T12:05:28;9.20;;;6.00;;
20861;SDS011;10591;52.532;13.348;2022-10-29T12:10:46;11.75;;;6.35;;
20861;SDS011;10591;52.532;13.348;2022-10-29T12:13:23;13.00;;;5.87;;
20861;SDS011;10591;52.532;13.348;2022-10-29T12:15:59;10.08;;;6.00;;
20861;SDS011;10591;52.532;13.348;2022-10-29T12:18:41;11.35;;;6.47;;
20861;SDS011;10591;52.532;13.348;2022-10-29T12:21:31;9.83;;;6.40;;
20861;SDS011;10591;52.532;13.348;2022-10-29T12:27:05;10.43;;;5.97;;
20861;SDS011;10591;52.532;13.348;2022-10-29T12:29:53;13.60;;;6.65;;
20861;SDS011;10591;52.532;13.348;2022-10-29T12:35:32;13.50;;;7.28;;
20861;SDS011;10591;52.532;13.348;2022-10-29T12:38:34;12.63;;;6.28;;
20861;SDS011;10591;52.532;13.348;2022-10-29T12:41:08;13.28;;;6.40;;
20861;SDS011;10591;52.532;13.348;2022-10-29T12:43:37;13.88;;;6.83;;
20861;SDS011;10591;52.532;13.348;2022-10-29T12:49:10;13.00;;;6.72;;
20861;SDS011;10591;52.532;13.348;2022-10-29T12:51:58;12.95;;;6.95;;
20861;SDS011;10591;52.532;13.348;2022-10-29T12:54:33;11.70;;;6.62;;
20861;SDS011;10591;52.532;13.348;2022-10-29T12:59:46;12.03;;;6.83;;
20861;SDS011;10591;52.532;13.348;2022-10-29T13:15:49;9.93;;;6.05;;
20861;SDS011;10591;52.532;13.348;2022-10-29T13:18:46;11.45;;;6.33;;
20861;SDS011;10591;52.532;13.348;2022-10-29T13:21:10;11.75;;;8.10;;
20861;SDS011;10591;52.532;13.348;2022-10-29T13:23:40;8.03;;;6.45;;
20861;SDS011;10591;52.532;13.348;2022-10-29T13:26:14;11.00;;;6.10;;
20861;SDS011;10591;52.532;13.348;2022-10-29T13:28:48;11.53;;;6.10;;
20861;SDS011;10591;52.532;13.348;2022-10-29T13:33:53;9.08;;;6.62;;
20861;SDS011;10591;52.532;13.348;2022-10-29T13:39:00;11.70;;;7.28;;
20861;SDS011;10591;52.532;13.348;2022-10-29T13:44:25;9.73;;;7.12;;
20861;SDS011;10591;52.532;13.348;2022-10-29T13:46:53;12.78;;;6.90;;
20861;SDS011;10591;52.532;13.348;2022-10-29T13:49:39;14.55;;;8.05;;
20861;SDS011;10591;52.532;13.348;2022-10-29T13:52:14;10.85;;;7.28;;
20861;SDS011;10591;52.532;13.348;2022-10-29T13:54:55;11.68;;;6.92;;
20861;SDS011;10591;52.532;13.348;2022-10-29T13:57:30;10.72;;;6.42;;
20861;SDS011;10591;52.532;13.348;2022-10-29T14:00:15;11.30;;;7.25;;
20861;SDS011;10591;52.532;13.348;2022-10-29T14:02:55;12.37;;;7.67;;
20861;SDS011;10591;52.532;13.348;2022-10-29T14:08:16;8.95;;;6.65;;
20861;SDS011;10591;52.532;13.348;2022-10-29T14:10:52;11.93;;;7.20;;
20861;SDS011;10591;52.532;13.348;2022-10-29T14:13:29;10.20;;;7.00;;
20861;SDS011;10591;52.532;13.348;2022-10-29T14:16:06;15.60;;;7.55;;
20861;SDS011;10591;52.532;13.348;2022-10-29T14:18:42;13.15;;;7.00;;
20861;SDS011;10591;52.532;13.348;2022-10-29T14:21:17;11.35;;;6.58;;
20861;SDS011;10591;52.532;13.348;2022-10-29T14:26:37;15.55;;;6.67;;
20861;SDS011;10591;52.532;13.348;2022-10-29T14:32:06;13.13;;;7.42;;
20861;SDS011;10591;52.532;13.348;2022-10-29T14:34:48;11.03;;;7.12;;
20861;SDS011;10591;52.532;13.348;2022-10-29T14:37:25;12.53;;;7.45;;
20861;SDS011;10591;52.532;13.348;2022-10-29T14:39:53;12.65;;;7.03;;
20861;SDS011;10591;52.532;13.348;2022-10-29T14:42:36;14.63;;;8.23;;
20861;SDS011;10591;52.532;13.348;2022-10-29T14:45:19;11.78;;;7.03;;
20861;SDS011;10591;52.532;13.348;2022-10-29T14:47:59;11.57;;;8.65;;
20861;SDS011;10591;52.532;13.348;2022-10-29T14:50:33;11.53;;;7.83;;
20861;SDS011;10591;52.532;13.348;2022-10-29T14:53:04;11.63;;;7.37;;
20861;SDS011;10591;52.532;13.348;2022-10-29T14:55:37;15.78;;;8.25;;
20861;SDS011;10591;52.532;13.348;2022-10-29T14:58:18;11.22;;;7.22;;
20861;SDS011;10591;52.532;13.348;2022-10-29T15:00:55;12.90;;;7.67;;
20861;SDS011;10591;52.532;13.348;2022-10-29T15:03:31;12.25;;;7.67;;
20861;SDS011;10591;52.532;13.348;2022-10-29T15:06:16;14.07;;;9.48;;
20861;SDS011;10591;52.532;13.348;2022-10-29T15:08:59;12.63;;;7.65;;
20861;SDS011;10591;52.532;13.348;2022-10-29T15:14:24;13.38;;;8.58;;
20861;SDS011;10591;52.532;13.348;2022-10-29T15:17:06;12.73;;;7.67;;
20861;SDS011;10591;52.532;13.348;2022-10-29T15:19:40;12.00;;;8.05;;
20861;SDS011;10591;52.532;13.348;2022-10-29T15:22:17;16.17;;;8.58;;
20861;SDS011;10591;52.532;13.348;2022-10-29T15:24:47;14.20;;;8.40;;
20861;SDS011;10591;52.532;13.348;2022-10-29T15:27:18;14.55;;;8.28;;
20861;SDS011;10591;52.532;13.348;2022-10-29T15:29:52;13.38;;;8.53;;
20861;SDS011;10591;52.532;13.348;2022-10-29T15:32:25;14.63;;;8.43;;
20861;SDS011;10591;52.532;13.348;2022-10-29T15:34:58;17.00;;;9.23;;
20861;SDS011;10591;52.532;13.348;2022-10-29T15:40:15;16.23;;;8.88;;
20861;SDS011;10591;52.532;13.348;2022-10-29T15:42:46;29.98;;;20.10;;
20861;SDS011;10591;52.532;13.348;2022-10-29T15:45:25;30.32;;;21.48;;
20861;SDS011;10591;52.532;13.348;2022-10-29T15:47:57;49.83;;;32.78;;
20861;SDS011;10591;52.532;13.348;2022-10-29T15:50:40;22.60;;;13.08;;
20861;SDS011;10591;52.532;13.348;2022-10-29T15:53:14;19.00;;;9.58;;
20861;SDS011;10591;52.532;13.348;2022-10-29T15:55:45;18.15;;;12.80;;
20861;SDS011;10591;52.532;13.348;2022-10-29T15:58:20;17.60;;;12.93;;
20861;SDS011;10591;52.532;13.348;2022-10-29T16:00:51;17.62;;;10.28;;
20861;SDS011;10591;52.532;13.348;2022-10-29T16:03:22;23.30;;;15.70;;
20861;SDS011;10591;52.532;13.348;2022-10-29T16:11:11;21.95;;;15.48;;
20861;SDS011;10591;52.532;13.348;2022-10-29T16:13:42;17.60;;;12.78;;
20861;SDS011;10591;52.532;13.348;2022-10-29T16:16:16;23.20;;;15.25;;
20861;SDS011;10591;52.532;13.348;2022-10-29T16:18:48;31.20;;;19.92;;
20861;SDS011;10591;52.532;13.348;2022-10-29T16:21:20;19.17;;;13.80;;
20861;SDS011;10591;52.532;13.348;2022-10-29T16:23:53;17.20;;;11.33;;
20861;SDS011;10591;52.532;13.348;2022-10-29T16:26:24;17.87;;;10.72;;
20861;SDS011;10591;52.532;13.348;2022-10-29T16:28:55;18.98;;;11.70;;
20861;SDS011;10591;52.532;13.348;2022-10-29T16:31:26;14.80;;;12.45;;
20861;SDS011;10591;52.532;13.348;2022-10-29T16:33:58;18.73;;;14.90;;
20861;SDS011;10591;52.532;13.348;2022-10-29T16:36:31;19.37;;;13.25;;
20861;SDS011;10591;52.532;13.348;2022-10-29T16:39:01;17.77;;;13.03;;
20861;SDS011;10591;52.532;13.348;2022-10-29T16:41:31;22.40;;;14.38;;
20861;SDS011;10591;52.532;13.348;2022-10-29T16:44:03;19.10;;;14.85;;
20861;SDS011;10591;52.532;13.348;2022-10-29T16:46:33;17.05;;;10.98;;
20861;SDS011;10591;52.532;13.348;2022-10-29T16:49:04;15.05;;;10.75;;
20861;SDS011;10591;52.532;13.348;2022-10-29T16:51:34;16.55;;;11.75;;
20861;SDS011;10591;52.532;13.348;2022-10-29T16:54:04;16.97;;;11.85;;
20861;SDS011;10591;52.532;13.348;2022-10-29T16:56:35;19.10;;;12.88;;
20861;SDS011;10591;52.532;13.348;2022-10-29T16:59:05;15.38;;;12.05;;
20861;SDS011;10591;52.532;13.348;2022-10-29T17:01:36;16.45;;;13.22;;